createdAt,value
2019-01-12T00:00:18.299Z,7.30
2019-01-12T00:02:47.085Z,7.30
2019-01-12T00:05:15.932Z,7.31
2019-01-12T00:07:44.794Z,7.34
2019-01-12T00:10:13.626Z,7.34
2019-01-12T00:12:42.414Z,7.33
2019-01-12T00:15:11.202Z,7.32
2019-01-12T00:17:40.070Z,7.31
2019-01-12T00:20:08.865Z,7.29
2019-01-12T00:22:37.658Z,7.29
2019-01-12T00:25:06.495Z,7.29
2019-01-12T00:27:35.352Z,7.27
2019-01-12T00:30:04.812Z,7.28
2019-01-12T00:32:33.599Z,7.28
2019-01-12T00:35:02.482Z,7.29
2019-01-12T00:37:31.268Z,7.28
2019-01-12T00:40:00.055Z,7.27
2019-01-12T00:42:28.841Z,7.28
2019-01-12T00:44:57.616Z,7.28
2019-01-12T00:47:26.401Z,7.26
2019-01-12T00:49:55.222Z,7.26
2019-01-12T00:52:24.008Z,7.25
2019-01-12T00:54:52.795Z,7.26
2019-01-12T00:57:21.687Z,7.25
2019-01-12T00:59:50.474Z,7.26
2019-01-12T01:02:19.251Z,7.27
2019-01-12T01:04:48.046Z,7.29
2019-01-12T01:07:17.206Z,7.30
2019-01-12T01:09:45.996Z,7.31
2019-01-12T01:12:14.811Z,7.32
2019-01-12T01:14:43.711Z,7.32
2019-01-12T01:17:12.484Z,7.29
2019-01-12T01:19:41.325Z,7.29
2019-01-12T01:22:10.119Z,7.29
2019-01-12T01:24:45.538Z,7.26
2019-01-12T01:27:07.755Z,7.21
2019-01-12T01:29:36.546Z,7.20
2019-01-12T01:32:05.371Z,7.19
2019-01-12T01:34:34.154Z,7.18
2019-01-12T01:37:02.981Z,7.18
2019-01-12T01:39:31.804Z,7.19
2019-01-12T01:42:00.639Z,7.20
2019-01-12T01:44:29.417Z,7.16
2019-01-12T01:46:58.201Z,7.15
2019-01-12T01:49:27.004Z,7.15
2019-01-12T01:51:55.796Z,7.14
2019-01-12T01:54:24.606Z,7.16
2019-01-12T01:56:53.452Z,7.19
2019-01-12T01:59:22.216Z,7.23
2019-01-12T02:01:51.007Z,7.21
2019-01-12T02:04:19.799Z,7.18
2019-01-12T02:06:48.583Z,7.18
2019-01-12T02:09:17.359Z,7.16
2019-01-12T02:11:46.128Z,7.17
2019-01-12T02:14:14.950Z,7.18
2019-01-12T02:16:43.867Z,7.16
2019-01-12T02:19:12.681Z,7.16
2019-01-12T02:21:41.482Z,7.15
2019-01-12T02:24:10.323Z,7.14
2019-01-12T02:26:39.294Z,7.14
2019-01-12T02:29:08.155Z,7.12
2019-01-12T02:31:36.991Z,7.12
2019-01-12T02:34:05.804Z,7.11
2019-01-12T02:36:34.567Z,7.09
2019-01-12T02:39:05.029Z,7.05
2019-01-12T02:41:33.863Z,7.04
2019-01-12T02:44:02.699Z,7.02
2019-01-12T02:46:31.588Z,7.01
2019-01-12T02:49:00.398Z,7.00
2019-01-12T02:51:29.182Z,7.00
2019-01-12T02:53:57.968Z,7.03
2019-01-12T02:56:26.744Z,7.03
2019-01-12T02:58:55.574Z,7.03
2019-01-12T03:01:24.454Z,7.00
2019-01-12T03:03:53.395Z,6.95
2019-01-12T03:06:22.244Z,6.89
2019-01-12T03:08:51.051Z,6.89
2019-01-12T03:11:19.881Z,6.90
2019-01-12T03:13:48.771Z,6.92
2019-01-12T03:16:17.553Z,6.93
2019-01-12T03:18:46.334Z,6.92
2019-01-12T03:21:15.119Z,6.92
2019-01-12T03:23:43.955Z,6.93
2019-01-12T03:26:12.721Z,6.93
2019-01-12T03:28:41.620Z,6.95
2019-01-12T03:31:10.472Z,6.93
2019-01-12T03:33:39.301Z,6.95
2019-01-12T03:36:08.102Z,6.94
2019-01-12T03:38:36.971Z,6.94
2019-01-12T03:41:05.813Z,6.94
2019-01-12T03:43:34.584Z,6.93
2019-01-12T03:46:03.377Z,6.93
2019-01-12T03:48:32.187Z,6.92
2019-01-12T03:51:01.020Z,6.90
2019-01-12T03:53:29.833Z,6.89
2019-01-12T03:55:58.651Z,6.90
2019-01-12T03:58:27.525Z,6.87
2019-01-12T04:00:56.310Z,6.86
2019-01-12T04:03:25.174Z,6.85
2019-01-12T04:05:53.981Z,6.83
2019-01-12T04:08:22.829Z,6.82
2019-01-12T04:10:51.600Z,6.82
2019-01-12T04:13:20.435Z,6.85
2019-01-12T04:15:49.257Z,6.84
2019-01-12T04:18:18.039Z,6.87
2019-01-12T04:20:46.877Z,6.86
2019-01-12T04:23:15.757Z,6.87
2019-01-12T04:25:44.640Z,6.84
2019-01-12T04:28:13.431Z,6.81
2019-01-12T04:30:42.235Z,6.82
2019-01-12T04:33:11.012Z,6.81
2019-01-12T04:35:39.798Z,6.80
2019-01-12T04:38:08.631Z,6.81
2019-01-12T04:40:37.411Z,6.81
2019-01-12T04:43:06.278Z,6.80
2019-01-12T04:45:35.115Z,6.78
2019-01-12T04:48:03.911Z,6.78
2019-01-12T04:50:32.868Z,6.78
2019-01-12T04:53:01.712Z,6.79
2019-01-12T04:55:30.498Z,6.78
2019-01-12T04:57:59.293Z,6.78
2019-01-12T05:00:28.078Z,6.80
2019-01-12T05:02:56.977Z,6.80
2019-01-12T05:05:25.770Z,6.80
2019-01-12T05:07:54.679Z,6.81
2019-01-12T05:10:23.534Z,6.82
2019-01-12T05:12:52.380Z,6.82
2019-01-12T05:15:21.232Z,6.85
2019-01-12T05:17:50.026Z,6.85
2019-01-12T05:20:20.056Z,6.85
2019-01-12T05:22:48.991Z,6.84
2019-01-12T05:25:17.786Z,6.85
2019-01-12T05:27:46.693Z,6.84
2019-01-12T05:30:18.686Z,6.84
2019-01-12T05:32:47.522Z,6.85
2019-01-12T05:35:16.435Z,6.87
2019-01-12T05:37:45.330Z,6.87
2019-01-12T05:40:14.111Z,6.84
2019-01-12T05:42:42.949Z,6.84
2019-01-12T05:45:12.156Z,6.83
2019-01-12T05:47:40.950Z,6.84
2019-01-12T05:50:11.124Z,6.84
2019-01-12T05:52:39.954Z,6.85
2019-01-12T05:55:08.745Z,6.85
2019-01-12T05:57:37.527Z,6.86
2019-01-12T06:00:10.283Z,6.87
2019-01-12T06:02:39.107Z,6.87
2019-01-12T06:05:07.900Z,6.85
2019-01-12T06:07:36.675Z,6.85
2019-01-12T06:10:05.695Z,6.86
2019-01-12T06:12:34.511Z,6.85
2019-01-12T06:15:03.312Z,6.85
2019-01-12T06:17:32.133Z,6.85
2019-01-12T06:20:01.255Z,6.86
2019-01-12T06:22:30.086Z,6.84
2019-01-12T06:24:58.919Z,6.83
2019-01-12T06:27:27.706Z,6.83
2019-01-12T06:29:56.510Z,6.82
2019-01-12T06:32:25.347Z,6.82
2019-01-12T06:34:54.140Z,6.80
2019-01-12T06:37:22.949Z,6.80
2019-01-12T06:39:51.735Z,6.79
2019-01-12T06:42:20.573Z,6.78
2019-01-12T06:44:49.386Z,6.76
2019-01-12T06:47:18.156Z,6.74
2019-01-12T06:49:47.015Z,6.74
2019-01-12T06:52:15.839Z,6.74
2019-01-12T06:54:44.711Z,6.74
2019-01-12T06:57:13.543Z,6.73
2019-01-12T06:59:42.368Z,6.73
2019-01-12T07:02:11.210Z,6.72
2019-01-12T07:04:40.047Z,6.73
2019-01-12T07:07:08.870Z,6.73
2019-01-12T07:09:37.706Z,6.75
2019-01-12T07:12:06.651Z,6.74
2019-01-12T07:14:35.430Z,6.74
2019-01-12T07:17:04.267Z,6.72
2019-01-12T07:19:33.267Z,6.72
2019-01-12T07:22:02.042Z,6.71
2019-01-12T07:24:30.954Z,6.72
2019-01-12T07:26:59.763Z,6.72
2019-01-12T07:29:28.668Z,6.72
2019-01-12T07:31:57.527Z,6.73
2019-01-12T07:34:26.322Z,6.72
2019-01-12T07:36:55.114Z,6.72
2019-01-12T07:39:23.911Z,6.71
2019-01-12T07:41:53.173Z,6.70
2019-01-12T07:44:21.959Z,6.71
2019-01-12T07:46:50.760Z,6.70
2019-01-12T07:49:19.541Z,6.70
2019-01-12T07:51:48.380Z,6.72
2019-01-12T07:54:17.165Z,6.73
2019-01-12T07:56:45.940Z,6.75
2019-01-12T07:59:14.812Z,6.75
2019-01-12T08:01:43.616Z,6.76
2019-01-12T08:04:12.558Z,6.75
2019-01-12T08:06:41.408Z,6.77
2019-01-12T08:09:10.247Z,6.76
2019-01-12T08:11:39.034Z,6.79
2019-01-12T08:14:07.866Z,6.78
2019-01-12T08:16:36.671Z,6.78
2019-01-12T08:19:05.443Z,6.79
2019-01-12T08:21:34.239Z,6.80
2019-01-12T08:24:03.070Z,6.81
2019-01-12T08:26:32.023Z,6.83
2019-01-12T08:29:00.826Z,6.84
2019-01-12T08:31:30.752Z,6.85
2019-01-12T08:33:59.535Z,6.87
2019-01-12T08:36:28.376Z,6.92
2019-01-12T08:38:57.226Z,6.96
2019-01-12T08:41:26.090Z,6.95
2019-01-12T08:43:54.895Z,6.97
2019-01-12T08:46:23.672Z,7.00
2019-01-12T08:48:52.487Z,6.99
2019-01-12T08:51:21.370Z,6.99
2019-01-12T08:53:50.532Z,6.97
2019-01-12T08:56:19.387Z,6.98
2019-01-12T08:58:48.258Z,6.99
2019-01-12T09:01:17.170Z,6.98
2019-01-12T09:03:46.100Z,7.01
2019-01-12T09:06:14.959Z,7.01
2019-01-12T09:08:43.868Z,7.02
2019-01-12T09:11:12.714Z,7.04
2019-01-12T09:13:41.504Z,7.07
2019-01-12T09:16:10.280Z,7.11
2019-01-12T09:18:39.091Z,7.13
2019-01-12T09:21:08.017Z,7.13
2019-01-12T09:23:36.833Z,7.15
2019-01-12T09:26:05.691Z,7.16
2019-01-12T09:28:34.572Z,7.15
2019-01-12T09:31:03.443Z,7.15
2019-01-12T09:33:32.246Z,7.17
2019-01-12T09:36:01.057Z,7.19
2019-01-12T09:38:29.883Z,7.21
2019-01-12T09:40:58.691Z,7.24
2019-01-12T09:43:27.531Z,7.27
2019-01-12T09:45:56.371Z,7.28
2019-01-12T09:48:25.211Z,7.27
2019-01-12T09:50:54.067Z,7.28
2019-01-12T09:53:22.874Z,7.27
2019-01-12T09:58:26.824Z,7.28
2019-01-12T10:00:55.708Z,7.29
2019-01-12T10:03:24.543Z,7.30
2019-01-12T10:05:53.395Z,7.33
2019-01-12T10:08:22.259Z,7.33
2019-01-12T10:10:51.039Z,7.30
2019-01-12T10:13:19.844Z,7.31
2019-01-12T10:15:48.671Z,7.30
2019-01-12T10:18:17.526Z,7.30
2019-01-12T10:20:46.306Z,7.32
2019-01-12T10:23:15.189Z,7.33
2019-01-12T10:25:44.027Z,7.35
2019-01-12T10:28:12.836Z,7.38
2019-01-12T10:30:41.709Z,7.40
2019-01-12T10:33:10.515Z,7.44
2019-01-12T10:35:39.303Z,7.47
2019-01-12T10:38:08.113Z,7.50
2019-01-12T10:40:36.940Z,7.50
2019-01-12T10:43:05.735Z,7.53
2019-01-12T10:45:34.544Z,7.52
2019-01-12T10:48:03.341Z,7.55
2019-01-12T10:50:33.527Z,7.55
2019-01-12T10:53:02.642Z,7.57
2019-01-12T10:55:31.448Z,7.62
2019-01-12T10:58:01.259Z,7.65
2019-01-12T11:00:32.594Z,7.67
2019-01-12T11:03:01.380Z,7.67
2019-01-12T11:05:30.173Z,7.67
2019-01-12T11:07:58.992Z,7.68
2019-01-12T11:10:27.824Z,7.72
2019-01-12T11:12:56.672Z,7.74
2019-01-12T11:15:25.459Z,7.75
2019-01-12T11:17:54.259Z,7.77
2019-01-12T11:20:23.087Z,7.79
2019-01-12T11:22:51.892Z,7.81
2019-01-12T11:25:20.705Z,7.83
2019-01-12T11:27:49.521Z,7.86
2019-01-12T11:30:18.703Z,7.85
2019-01-12T11:32:47.599Z,7.84
2019-01-12T11:35:16.374Z,7.86
2019-01-12T11:37:45.163Z,7.86
2019-01-12T11:40:18.091Z,7.85
2019-01-12T11:42:47.084Z,7.89
2019-01-12T11:45:15.856Z,7.88
2019-01-12T11:47:44.687Z,7.91
2019-01-12T11:50:14.266Z,7.92
2019-01-12T11:52:43.142Z,7.91
2019-01-12T11:55:12.230Z,7.90
2019-01-12T11:57:41.096Z,7.92
2019-01-12T12:04:50.500Z,7.93
2019-01-12T12:07:19.515Z,7.94
2019-01-12T12:09:48.295Z,7.92
2019-01-12T12:12:17.079Z,7.93
2019-01-12T12:14:45.923Z,7.95
2019-01-12T12:17:14.709Z,7.98
2019-01-12T12:19:43.534Z,8.02
2019-01-12T12:22:12.335Z,8.01
2019-01-12T12:24:41.110Z,8.01
2019-01-12T12:27:09.950Z,8.02
2019-01-12T12:29:38.760Z,8.03
2019-01-12T12:32:07.635Z,8.04
2019-01-12T12:34:36.508Z,8.05
2019-01-12T12:37:05.301Z,8.07
2019-01-12T12:39:34.084Z,8.04
2019-01-12T12:42:02.980Z,8.07
2019-01-12T12:44:31.888Z,8.09
2019-01-12T12:47:00.675Z,8.11
2019-01-12T12:49:29.575Z,8.13
2019-01-12T12:51:58.511Z,8.16
2019-01-12T12:54:27.374Z,8.17
2019-01-12T12:56:56.170Z,8.16
2019-01-12T12:59:25.040Z,8.18
2019-01-12T13:01:53.831Z,8.22
2019-01-12T13:04:22.696Z,8.26
2019-01-12T13:06:51.488Z,8.28
2019-01-12T13:09:20.374Z,8.32
2019-01-12T13:11:49.211Z,8.35
2019-01-12T13:14:17.999Z,8.39
2019-01-12T13:16:46.841Z,8.46
2019-01-12T13:19:15.759Z,8.50
2019-01-12T13:21:44.615Z,8.56
2019-01-12T13:24:13.483Z,8.59
2019-01-12T13:26:42.324Z,8.60
2019-01-12T13:29:11.184Z,8.60
2019-01-12T13:31:39.995Z,8.60
2019-01-12T13:34:09.444Z,8.61
2019-01-12T13:36:38.311Z,8.62
2019-01-12T13:39:07.908Z,8.63
2019-01-12T13:41:36.790Z,8.67
2019-01-12T13:44:05.600Z,8.70
2019-01-12T13:46:34.511Z,8.73
2019-01-12T13:49:03.401Z,8.74
2019-01-12T13:51:32.486Z,8.77
2019-01-12T13:54:01.303Z,8.78
2019-01-12T13:56:30.180Z,8.80
2019-01-12T13:58:59.016Z,8.85
2019-01-12T14:01:27.916Z,8.88
2019-01-12T14:03:56.756Z,8.88
2019-01-12T14:06:25.615Z,8.87
2019-01-12T14:08:54.411Z,8.88
2019-01-12T14:11:23.236Z,8.86
2019-01-12T14:13:52.072Z,8.84
2019-01-12T14:16:20.904Z,8.81
2019-01-12T14:18:52.791Z,8.79
2019-01-12T14:21:21.690Z,8.74
2019-01-12T14:23:50.532Z,8.73
2019-01-12T14:26:19.332Z,8.71
2019-01-12T14:28:48.620Z,8.69
2019-01-12T14:31:17.419Z,8.64
2019-01-12T14:33:46.206Z,8.61
2019-01-12T14:36:15.037Z,8.60
2019-01-12T14:38:45.042Z,8.60
2019-01-12T14:41:13.866Z,8.62
2019-01-12T14:43:42.635Z,8.64
2019-01-12T14:46:11.438Z,8.67
2019-01-12T14:48:40.223Z,8.66
2019-01-12T14:51:09.016Z,8.66
2019-01-12T14:53:37.808Z,8.64
2019-01-12T14:56:06.595Z,8.64
2019-01-12T14:58:35.388Z,8.66
2019-01-12T15:01:04.203Z,8.68
2019-01-12T15:03:33.039Z,8.69
2019-01-12T15:06:01.941Z,8.69
2019-01-12T15:08:30.841Z,8.66
2019-01-12T15:10:59.664Z,8.67
2019-01-12T15:13:28.564Z,8.66
2019-01-12T15:15:57.424Z,8.66
2019-01-12T15:18:26.223Z,8.65
2019-01-12T15:20:55.157Z,8.62
2019-01-12T15:23:24.035Z,8.62
2019-01-12T15:25:52.837Z,8.61
2019-01-12T15:28:21.644Z,8.59
2019-01-12T15:30:50.474Z,8.57
2019-01-12T15:33:19.307Z,8.56
2019-01-12T15:35:48.147Z,8.54
2019-01-12T15:38:17.008Z,8.54
2019-01-12T15:40:45.917Z,8.52
2019-01-12T15:43:14.772Z,8.51
2019-01-12T15:45:43.650Z,8.51
2019-01-12T15:48:12.504Z,8.48
2019-01-12T15:50:41.275Z,8.44
2019-01-12T15:53:10.054Z,8.43
2019-01-12T15:55:38.945Z,8.42
2019-01-12T15:58:07.739Z,8.39
2019-01-12T16:00:36.563Z,8.44
2019-01-12T16:03:05.415Z,8.37
2019-01-12T16:05:34.205Z,8.37
2019-01-12T16:08:03.026Z,8.36
2019-01-12T16:10:31.896Z,8.36
2019-01-12T16:13:01.579Z,8.37
2019-01-12T16:15:30.408Z,8.36
2019-01-12T16:17:59.445Z,8.37
2019-01-12T16:20:32.391Z,8.37
2019-01-12T16:23:01.195Z,8.33
2019-01-12T16:25:30.077Z,8.30
2019-01-12T16:27:58.895Z,8.29
2019-01-12T16:30:27.756Z,8.31
2019-01-12T16:32:56.640Z,8.31
2019-01-12T16:35:25.431Z,8.31
2019-01-12T16:37:54.210Z,8.32
2019-01-12T16:40:23.812Z,8.29
2019-01-12T16:42:52.614Z,8.27
2019-01-12T16:45:21.414Z,8.25
2019-01-12T16:47:50.287Z,8.21
2019-01-12T16:50:19.104Z,8.16
2019-01-12T16:52:48.024Z,8.17
2019-01-12T16:55:17.039Z,8.16
2019-01-12T16:57:46.160Z,8.17
2019-01-12T17:00:17.774Z,8.14
2019-01-12T17:02:46.626Z,8.11
2019-01-12T17:05:15.443Z,8.07
2019-01-12T17:07:44.282Z,8.05
2019-01-12T17:10:15.148Z,8.04
2019-01-12T17:12:43.997Z,8.04
2019-01-12T17:15:14.165Z,8.06
2019-01-12T17:17:42.946Z,8.08
2019-01-12T17:20:15.966Z,8.07
2019-01-12T17:22:45.203Z,8.07
2019-01-12T17:25:13.969Z,8.06
2019-01-12T17:27:42.876Z,8.04
2019-01-12T17:30:14.774Z,8.04
2019-01-12T17:32:43.585Z,8.03
2019-01-12T17:35:12.944Z,8.02
2019-01-12T17:37:41.755Z,8.02
2019-01-12T17:40:11.662Z,8.04
2019-01-12T17:42:40.447Z,8.04
2019-01-12T17:45:13.150Z,8.05
2019-01-12T17:47:41.945Z,8.05
2019-01-12T17:50:12.559Z,8.04
2019-01-12T17:52:41.415Z,8.07
2019-01-12T17:55:12.409Z,8.10
2019-01-12T17:57:41.664Z,8.12
2019-01-12T18:00:13.827Z,8.08
2019-01-12T18:02:42.646Z,8.08
2019-01-12T18:05:11.465Z,8.08
2019-01-12T18:07:40.303Z,8.08
2019-01-12T18:10:10.429Z,8.08
2019-01-12T18:12:39.228Z,8.10
2019-01-12T18:15:09.891Z,8.10
2019-01-12T18:17:38.747Z,8.12
2019-01-12T18:20:09.208Z,8.15
2019-01-12T18:22:38.449Z,8.16
2019-01-12T18:25:08.832Z,8.14
2019-01-12T18:27:37.703Z,8.15
2019-01-12T18:30:10.069Z,8.15
2019-01-12T18:32:38.911Z,8.13
2019-01-12T18:35:07.868Z,8.12
2019-01-12T18:37:36.811Z,8.12
2019-01-12T18:40:07.436Z,8.13
2019-01-12T18:42:37.004Z,8.10
2019-01-12T18:45:06.659Z,8.12
2019-01-12T18:47:35.473Z,8.11
2019-01-12T18:50:04.970Z,8.12
2019-01-12T18:52:33.763Z,8.11
2019-01-12T18:55:02.592Z,8.10
2019-01-12T18:57:31.516Z,8.12
2019-01-12T19:00:00.491Z,8.12
2019-01-12T19:02:29.271Z,8.10
2019-01-12T19:04:58.187Z,8.10
2019-01-12T19:07:27.095Z,8.10
2019-01-12T19:09:55.947Z,8.10
2019-01-12T19:12:24.779Z,8.11
2019-01-12T19:14:53.586Z,8.14
2019-01-12T19:17:22.420Z,8.16
2019-01-12T19:19:51.212Z,8.16
2019-01-12T19:22:20.028Z,8.15
2019-01-12T19:24:48.810Z,8.14
2019-01-12T19:27:17.642Z,8.13
2019-01-12T19:29:46.548Z,8.14
2019-01-12T19:32:16.990Z,8.12
2019-01-12T19:34:45.780Z,8.12
2019-01-12T19:37:14.557Z,8.11
2019-01-12T19:39:43.408Z,8.09
2019-01-12T19:42:12.262Z,8.04
2019-01-12T19:44:41.123Z,8.04
2019-01-12T19:47:09.996Z,8.05
2019-01-12T19:49:38.822Z,8.04
2019-01-12T19:52:07.615Z,8.04
2019-01-12T19:54:36.460Z,8.07
2019-01-12T19:57:05.313Z,8.05
2019-01-12T19:59:34.106Z,8.05
2019-01-12T20:02:02.969Z,8.05
2019-01-12T20:04:31.970Z,8.03
2019-01-12T20:07:00.769Z,8.03
2019-01-12T20:09:29.586Z,8.02
2019-01-12T20:11:58.374Z,8.02
2019-01-12T20:14:27.147Z,8.02
2019-01-12T20:16:55.928Z,8.04
2019-01-12T20:19:24.764Z,8.04
2019-01-12T20:21:53.611Z,8.04
2019-01-12T20:24:22.531Z,8.04
2019-01-12T20:26:51.323Z,8.05
2019-01-12T20:29:21.319Z,8.04
2019-01-12T20:34:03.791Z,8.03
2019-01-12T20:36:43.516Z,7.97
2019-01-12T20:40:20.450Z,7.96
2019-01-12T20:43:00.196Z,7.95
2019-01-12T20:45:39.954Z,7.95
2019-01-12T20:48:21.900Z,7.95
2019-01-12T20:51:04.095Z,7.97
2019-01-12T20:53:48.675Z,7.97
2019-01-12T20:56:24.386Z,7.93
2019-01-12T20:59:02.458Z,7.91
2019-01-12T21:01:46.087Z,7.88
2019-01-12T21:04:41.835Z,7.89
2019-01-12T21:07:38.681Z,7.92
2019-01-12T21:10:16.046Z,7.90
2019-01-12T21:12:58.632Z,7.90
2019-01-12T21:15:32.423Z,7.92
2019-01-12T21:18:01.283Z,7.92
2019-01-12T21:20:30.183Z,7.94
2019-01-12T21:22:59.007Z,7.96
2019-01-12T21:25:27.868Z,7.98
2019-01-12T21:27:56.701Z,7.96
2019-01-12T21:30:25.556Z,7.95
2019-01-12T21:32:54.342Z,7.94
2019-01-12T21:35:23.170Z,7.97
2019-01-12T21:37:51.953Z,7.96
2019-01-12T21:40:20.804Z,7.97
2019-01-12T21:42:49.632Z,7.97
2019-01-12T21:45:18.505Z,7.97
2019-01-12T21:47:47.360Z,7.97
2019-01-12T21:50:16.165Z,7.94
2019-01-12T21:52:44.978Z,7.93
2019-01-12T21:55:13.779Z,7.91
2019-01-12T21:57:42.586Z,7.90
2019-01-12T22:00:14.248Z,7.90
2019-01-12T22:02:43.147Z,7.93
2019-01-12T22:05:12.035Z,7.95
2019-01-12T22:07:40.835Z,7.95
2019-01-12T22:10:18.833Z,7.96
2019-01-12T22:12:40.471Z,7.92
2019-01-12T22:15:09.915Z,7.91
2019-01-12T22:17:38.733Z,7.88
2019-01-12T22:20:10.315Z,7.84
2019-01-12T22:22:39.102Z,7.85
2019-01-12T22:25:08.118Z,7.86
2019-01-12T22:27:37.021Z,7.87
2019-01-12T22:30:09.179Z,7.89
2019-01-12T22:32:38.062Z,7.88
2019-01-12T22:35:06.881Z,7.89
2019-01-12T22:37:35.714Z,7.90
2019-01-12T22:40:07.737Z,7.91
2019-01-12T22:42:36.568Z,7.91
2019-01-12T22:45:05.743Z,7.94
2019-01-12T22:47:34.527Z,7.94
2019-01-12T22:50:03.412Z,7.95
2019-01-12T22:52:32.221Z,7.94
2019-01-12T22:55:01.050Z,7.95
2019-01-12T22:57:29.896Z,7.93
2019-01-12T22:59:58.684Z,7.98
2019-01-12T23:02:27.535Z,7.99
2019-01-12T23:04:56.393Z,7.98
2019-01-12T23:07:25.310Z,7.99
2019-01-12T23:09:54.086Z,7.99
2019-01-12T23:12:22.910Z,7.99
2019-01-12T23:14:51.703Z,7.98
2019-01-12T23:17:20.575Z,7.98
2019-01-12T23:19:49.347Z,8.00
2019-01-12T23:22:18.335Z,8.01
2019-01-12T23:24:47.125Z,8.01
2019-01-12T23:27:15.942Z,8.03
2019-01-12T23:29:44.828Z,8.04
2019-01-12T23:32:14.631Z,8.03
2019-01-12T23:34:43.461Z,8.04
2019-01-12T23:37:12.299Z,8.07
2019-01-12T23:39:41.064Z,8.07
2019-01-12T23:42:09.851Z,8.08
2019-01-12T23:44:38.628Z,8.10
2019-01-12T23:47:07.478Z,8.11
2019-01-12T23:49:36.255Z,8.13
2019-01-12T23:52:05.395Z,8.14
2019-01-12T23:54:34.191Z,8.14
2019-01-12T23:57:02.995Z,8.14
2019-01-12T23:59:31.877Z,8.16
